createdAt,value
2022-11-17T00:00:11.835Z,5.00
2022-11-17T00:05:15.592Z,5.10
2022-11-17T00:10:18.508Z,5.10
2022-11-17T00:15:21.094Z,5.10
2022-11-17T00:20:41.995Z,5.00
2022-11-17T00:25:44.598Z,5.00
2022-11-17T00:31:05.728Z,5.10
2022-11-17T00:36:08.686Z,5.00
2022-11-17T00:41:11.277Z,5.00
2022-11-17T00:46:13.893Z,5.00
2022-11-17T00:51:16.552Z,4.90
2022-11-17T00:56:19.340Z,5.00
2022-11-17T01:01:22.533Z,5.00
2022-11-17T01:06:25.593Z,5.00
2022-11-17T01:11:28.748Z,5.00
2022-11-17T01:16:32.021Z,5.00
2022-11-17T01:21:34.706Z,4.90
2022-11-17T01:26:38.751Z,4.90
2022-11-17T01:31:43.690Z,4.90
2022-11-17T01:37:05.082Z,4.90
2022-11-17T01:42:16.300Z,5.00
2022-11-17T01:47:36.633Z,4.90
2022-11-17T01:52:41.057Z,4.90
2022-11-17T01:57:56.413Z,4.90
2022-11-17T02:02:59.310Z,4.90
2022-11-17T02:08:05.553Z,4.90
2022-11-17T02:13:09.260Z,4.90
2022-11-17T02:18:11.864Z,4.90
2022-11-17T02:23:37.605Z,4.90
2022-11-17T02:29:06.717Z,4.90
2022-11-17T02:34:26.873Z,4.90
2022-11-17T02:39:38.446Z,4.90
2022-11-17T02:44:52.770Z,4.90
2022-11-17T02:50:03.265Z,4.90
2022-11-17T02:55:08.809Z,4.90
2022-11-17T03:00:17.123Z,4.90
2022-11-17T03:05:26.364Z,4.90
2022-11-17T03:11:00.935Z,4.90
2022-11-17T03:16:34.989Z,4.80
2022-11-17T03:21:41.492Z,4.80
2022-11-17T03:26:52.514Z,4.90
2022-11-17T03:31:59.729Z,4.80
2022-11-17T03:37:05.840Z,4.90
2022-11-17T03:42:29.058Z,4.80
2022-11-17T03:47:33.560Z,4.90
2022-11-17T03:52:36.667Z,4.80
2022-11-17T03:57:46.549Z,4.80
2022-11-17T04:02:53.398Z,4.80
2022-11-17T04:07:55.706Z,4.80
2022-11-17T04:13:17.124Z,4.80
2022-11-17T04:18:20.599Z,4.80
2022-11-17T04:23:24.332Z,4.70
2022-11-17T04:28:37.335Z,4.70
2022-11-17T04:33:42.401Z,4.60
2022-11-17T04:38:47.064Z,4.60
2022-11-17T04:43:49.774Z,4.60
2022-11-17T04:48:54.312Z,4.60
2022-11-17T04:53:56.810Z,4.60
2022-11-17T04:58:59.342Z,4.60
2022-11-17T05:04:04.654Z,4.60
2022-11-17T05:09:12.666Z,4.60
2022-11-17T05:14:18.617Z,4.60
2022-11-17T05:19:23.446Z,4.60
2022-11-17T05:24:26.629Z,4.60
2022-11-17T05:29:28.910Z,4.70
2022-11-17T05:34:31.926Z,4.60
2022-11-17T05:39:34.235Z,4.50
2022-11-17T05:44:36.599Z,4.50
2022-11-17T05:49:38.959Z,4.50
2022-11-17T05:54:41.336Z,4.50
2022-11-17T05:59:54.217Z,4.50
2022-11-17T06:04:59.121Z,4.50
2022-11-17T06:10:03.959Z,4.50
2022-11-17T06:15:07.022Z,4.50
2022-11-17T06:20:23.123Z,4.40
2022-11-17T06:25:28.380Z,4.40
2022-11-17T06:57:36.104Z,4.40
2022-11-17T07:03:15.117Z,4.40
2022-11-17T07:08:28.035Z,4.40
2022-11-17T07:20:22.678Z,4.50
2022-11-17T07:25:25.114Z,4.50
2022-11-17T07:30:27.642Z,4.40
2022-11-17T07:35:30.140Z,4.40
2022-11-17T07:40:38.709Z,4.40
2022-11-17T07:45:41.075Z,4.40
2022-11-17T07:50:43.501Z,4.40
2022-11-17T07:55:45.891Z,4.40
2022-11-17T08:00:48.371Z,4.40
2022-11-17T08:05:50.785Z,4.40
2022-11-17T08:10:53.161Z,4.50
2022-11-17T08:15:57.185Z,4.50
2022-11-17T08:21:10.855Z,4.50
2022-11-17T08:26:13.234Z,4.50
2022-11-17T08:31:15.763Z,4.60
2022-11-17T08:36:18.095Z,4.50
2022-11-17T08:41:21.787Z,4.60
2022-11-17T08:46:25.748Z,4.60
2022-11-17T08:51:29.434Z,4.60
2022-11-17T08:56:31.890Z,4.60
2022-11-17T09:01:34.329Z,4.50
2022-11-17T09:06:37.890Z,4.70
2022-11-17T09:11:40.238Z,4.50
2022-11-17T09:16:44.889Z,4.50
2022-11-17T09:21:47.526Z,4.40
2022-11-17T09:26:50.076Z,4.40
2022-11-17T09:31:52.525Z,4.50
2022-11-17T09:36:54.904Z,4.50
2022-11-17T09:41:57.618Z,4.40
2022-11-17T09:47:19.513Z,4.50
2022-11-17T09:52:30.894Z,4.60
2022-11-17T09:57:46.427Z,4.60
2022-11-17T10:02:50.902Z,4.50
2022-11-17T10:07:56.421Z,4.60
2022-11-17T10:12:59.591Z,4.60
2022-11-17T10:18:02.075Z,4.60
2022-11-17T10:23:05.206Z,4.80
2022-11-17T10:28:23.715Z,4.70
2022-11-17T10:33:44.035Z,4.70
2022-11-17T10:38:49.148Z,4.70
2022-11-17T10:43:57.982Z,4.60
2022-11-17T10:49:03.239Z,4.70
2022-11-17T10:54:17.873Z,4.80
2022-11-17T10:59:57.857Z,4.80
2022-11-17T11:05:12.043Z,4.90
2022-11-17T11:10:23.684Z,4.90
2022-11-17T11:15:31.994Z,4.90
2022-11-17T11:20:49.525Z,4.80
2022-11-17T11:25:59.089Z,4.90
2022-11-17T11:31:29.604Z,4.90
2022-11-17T11:36:55.330Z,4.80
2022-11-17T11:42:07.881Z,4.80
2022-11-17T11:47:36.620Z,4.80
2022-11-17T11:52:43.449Z,4.80
2022-11-17T11:58:22.657Z,4.80
2022-11-17T12:03:49.285Z,4.80
2022-11-17T12:09:06.353Z,4.80
2022-11-17T12:14:17.266Z,4.70
2022-11-17T12:19:50.309Z,4.60
2022-11-17T12:24:57.746Z,4.60
2022-11-17T12:30:01.567Z,4.50
2022-11-17T12:35:24.427Z,4.50
2022-11-17T12:40:38.849Z,4.40
2022-11-17T12:45:53.257Z,4.40
2022-11-17T12:51:23.993Z,4.30
2022-11-17T12:56:48.168Z,4.30
2022-11-17T13:02:08.367Z,4.20
2022-11-17T13:07:22.668Z,4.20
2022-11-17T13:12:29.966Z,4.30
2022-11-17T13:17:42.712Z,4.30
2022-11-17T13:23:04.427Z,4.40
2022-11-17T13:28:23.609Z,4.40
2022-11-17T13:33:27.854Z,4.30
2022-11-17T13:38:30.421Z,4.30
2022-11-17T13:43:39.169Z,4.30
2022-11-17T13:48:44.139Z,4.10
2022-11-17T13:54:17.796Z,4.10
2022-11-17T13:59:32.126Z,4.10
2022-11-17T14:04:34.664Z,4.00
2022-11-17T14:09:37.257Z,4.10
2022-11-17T14:14:39.628Z,4.10
2022-11-17T14:19:42.042Z,4.10
2022-11-17T14:24:45.223Z,4.00
2022-11-17T14:29:47.615Z,3.90
2022-11-17T14:34:50.149Z,3.80
2022-11-17T14:39:52.516Z,3.80
2022-11-17T14:44:55.572Z,3.80
2022-11-17T14:49:57.889Z,3.90
2022-11-17T14:55:00.777Z,3.90
2022-11-17T15:00:05.766Z,3.80
2022-11-17T15:05:08.448Z,3.70
2022-11-17T15:10:11.395Z,3.70
2022-11-17T15:15:13.719Z,3.70
2022-11-17T15:20:16.262Z,3.50
2022-11-17T15:25:18.583Z,3.50
2022-11-17T15:30:20.993Z,3.60
2022-11-17T15:35:23.539Z,3.50
2022-11-17T15:40:25.870Z,3.40
2022-11-17T15:45:28.799Z,3.40
2022-11-17T15:50:31.258Z,3.40
2022-11-17T15:55:36.304Z,3.40
2022-11-17T16:00:40.311Z,3.30
2022-11-17T16:05:42.729Z,3.40
2022-11-17T16:10:45.011Z,3.40
2022-11-17T16:15:50.702Z,3.40
2022-11-17T16:20:53.363Z,3.40
2022-11-17T16:25:55.716Z,3.40
2022-11-17T16:30:58.111Z,3.40
2022-11-17T16:36:05.523Z,3.40
2022-11-17T16:41:07.869Z,3.30
2022-11-17T16:46:25.954Z,3.30
2022-11-17T16:51:28.460Z,3.30
2022-11-17T16:56:31.859Z,3.10
2022-11-17T17:01:37.489Z,3.10
2022-11-17T17:06:41.998Z,3.10
2022-11-17T17:11:44.433Z,3.10
2022-11-17T17:16:46.814Z,3.00
2022-11-17T17:21:49.129Z,3.00
2022-11-17T17:26:51.362Z,3.10
2022-11-17T17:31:53.693Z,3.10
2022-11-17T17:36:56.373Z,3.00
2022-11-17T17:41:58.725Z,3.00
2022-11-17T17:47:01.091Z,2.90
2022-11-17T17:52:03.568Z,2.90
2022-11-17T17:57:05.892Z,2.90
2022-11-17T18:02:09.530Z,3.00
2022-11-17T18:07:11.866Z,2.90
2022-11-17T18:12:14.353Z,2.90
2022-11-17T18:17:16.631Z,2.90
2022-11-17T18:22:18.953Z,2.90
2022-11-17T18:27:21.244Z,2.90
2022-11-17T18:32:23.829Z,2.80
2022-11-17T18:37:26.330Z,2.80
2022-11-17T18:42:28.685Z,2.80
2022-11-17T18:47:30.955Z,2.90
2022-11-17T18:52:33.246Z,2.80
2022-11-17T18:57:36.056Z,2.90
2022-11-17T19:02:39.955Z,3.00
2022-11-17T19:07:42.308Z,3.00
2022-11-17T19:12:44.662Z,2.90
2022-11-17T19:17:46.994Z,3.10
2022-11-17T19:22:49.282Z,3.00
2022-11-17T19:27:51.550Z,3.00
2022-11-17T19:32:53.828Z,2.90
2022-11-17T19:37:58.061Z,2.80
2022-11-17T19:43:00.424Z,2.70
2022-11-17T19:48:02.712Z,2.70
2022-11-17T19:53:05.004Z,2.70
2022-11-17T19:58:07.400Z,2.80
2022-11-17T20:03:09.720Z,2.50
2022-11-17T20:08:12.202Z,2.50
2022-11-17T20:13:14.894Z,2.50
2022-11-17T20:18:17.194Z,2.50
2022-11-17T20:23:19.924Z,2.50
2022-11-17T20:28:22.230Z,2.60
2022-11-17T20:33:24.620Z,2.60
2022-11-17T20:38:27.892Z,2.40
2022-11-17T20:43:30.392Z,2.30
2022-11-17T20:48:35.197Z,2.30
2022-11-17T20:53:38.094Z,2.30
2022-11-17T20:58:40.680Z,2.20
2022-11-17T21:03:43.445Z,2.20
2022-11-17T21:08:46.238Z,2.20
2022-11-17T21:13:48.563Z,2.20
2022-11-17T21:18:50.904Z,2.20
2022-11-17T21:23:54.524Z,2.20
2022-11-17T21:29:00.554Z,2.20
2022-11-17T21:34:07.743Z,2.20
2022-11-17T21:39:17.025Z,2.20
2022-11-17T21:44:19.822Z,2.20
2022-11-17T21:49:22.157Z,2.30
2022-11-17T21:54:24.491Z,2.40
2022-11-17T21:59:26.842Z,2.40
2022-11-17T22:04:29.108Z,2.40
2022-11-17T22:09:31.397Z,2.40
2022-11-17T22:14:33.642Z,2.30
2022-11-17T22:19:35.937Z,2.30
2022-11-17T22:24:39.834Z,2.30
2022-11-17T22:29:42.467Z,2.30
2022-11-17T22:34:44.800Z,2.40
2022-11-17T22:39:47.460Z,2.20
2022-11-17T22:44:49.828Z,2.30
2022-11-17T22:49:52.134Z,2.20
2022-11-17T22:54:54.445Z,2.20
2022-11-17T22:59:56.790Z,2.10
2022-11-17T23:04:59.051Z,2.10
2022-11-17T23:10:01.395Z,2.10
2022-11-17T23:15:04.236Z,2.20
2022-11-17T23:20:07.246Z,2.30
2022-11-17T23:25:09.801Z,2.30
2022-11-17T23:30:12.784Z,2.20
2022-11-17T23:35:15.095Z,2.20
2022-11-17T23:40:18.400Z,2.20
2022-11-17T23:45:20.701Z,2.10
2022-11-17T23:50:22.996Z,2.10
2022-11-17T23:55:25.243Z,2.10
